sensor_id;sensor_type;location;lat;lon;timestamp;pressure;altitude;pressure_sealevel;temperature;humidity
62791;BME280;48830;53.426;10.300;2023-04-03T00:00:19;103307.59;;;0.84;100.00
62791;BME280;48830;53.426;10.300;2023-04-03T00:02:44;103297.31;;;0.83;100.00
62791;BME280;48830;53.426;10.300;2023-04-03T00:05:10;103301.31;;;0.81;100.00
62791;BME280;48830;53.426;10.300;2023-04-03T00:07:35;103306.56;;;0.82;100.00
62791;BME280;48830;53.426;10.300;2023-04-03T00:10:01;103302.84;;;0.78;100.00
62791;BME280;48830;53.426;10.300;2023-04-03T00:12:26;103306.56;;;0.73;100.00
62791;BME280;48830;53.426;10.300;2023-04-03T00:14:52;103304.78;;;0.72;100.00
62791;BME280;48830;53.426;10.300;2023-04-03T00:17:17;103299.72;;;0.72;100.00
62791;BME280;48830;53.426;10.300;2023-04-03T00:19:42;103308.97;;;0.72;100.00
62791;BME280;48830;53.426;10.300;2023-04-03T00:22:08;103308.06;;;0.71;100.00
62791;BME280;48830;53.426;10.300;2023-04-03T00:24:33;103303.91;;;0.72;100.00
62791;BME280;48830;53.426;10.300;2023-04-03T00:26:59;103308.81;;;0.70;100.00
62791;BME280;48830;53.426;10.300;2023-04-03T00:29:24;103307.19;;;0.71;100.00
62791;BME280;48830;53.426;10.300;2023-04-03T00:31:50;103304.78;;;0.72;100.00
62791;BME280;48830;53.426;10.300;2023-04-03T00:34:15;103299.59;;;0.71;100.00
62791;BME280;48830;53.426;10.300;2023-04-03T00:36:41;103311.03;;;0.67;100.00
62791;BME280;48830;53.426;10.300;2023-04-03T00:39:06;103307.19;;;0.62;100.00
62791;BME280;48830;53.426;10.300;2023-04-03T00:41:31;103313.88;;;0.62;100.00
62791;BME280;48830;53.426;10.300;2023-04-03T00:43:57;103310.47;;;0.61;100.00
62791;BME280;48830;53.426;10.300;2023-04-03T00:46:23;103311.22;;;0.60;100.00
62791;BME280;48830;53.426;10.300;2023-04-03T00:48:49;103317.31;;;0.62;100.00
62791;BME280;48830;53.426;10.300;2023-04-03T00:51:22;103316.41;;;0.62;100.00
62791;BME280;48830;53.426;10.300;2023-04-03T00:53:53;103318.81;;;0.60;100.00
62791;BME280;48830;53.426;10.300;2023-04-03T00:56:23;103322.06;;;0.59;100.00
62791;BME280;48830;53.426;10.300;2023-04-03T00:59:02;103314.75;;;0.53;100.00
62791;BME280;48830;53.426;10.300;2023-04-03T01:01:29;103322.97;;;0.51;100.00
62791;BME280;48830;53.426;10.300;2023-04-03T01:03:56;103322.97;;;0.51;100.00
62791;BME280;48830;53.426;10.300;2023-04-03T01:06:26;103323.72;;;0.50;100.00
62791;BME280;48830;53.426;10.300;2023-04-03T01:08:53;103323.28;;;0.45;100.00
62791;BME280;48830;53.426;10.300;2023-04-03T01:11:19;103319.72;;;0.43;100.00
62791;BME280;48830;53.426;10.300;2023-04-03T01:13:46;103323.84;;;0.43;100.00
62791;BME280;48830;53.426;10.300;2023-04-03T01:16:12;103325.06;;;0.38;100.00
62791;BME280;48830;53.426;10.300;2023-04-03T01:18:39;103318.97;;;0.36;100.00
62791;BME280;48830;53.426;10.300;2023-04-03T01:22:01;103314.50;;;0.33;100.00
62791;BME280;48830;53.426;10.300;2023-04-03T01:24:36;103314.81;;;0.28;100.00
62791;BME280;48830;53.426;10.300;2023-04-03T01:27:07;103321.06;;;0.22;100.00
62791;BME280;48830;53.426;10.300;2023-04-03T01:29:34;103322.84;;;0.23;100.00
62791;BME280;48830;53.426;10.300;2023-04-03T01:32:02;103324.63;;;0.24;100.00
62791;BME280;48830;53.426;10.300;2023-04-03T01:34:29;103324.91;;;0.28;100.00
62791;BME280;48830;53.426;10.300;2023-04-03T01:36:55;103325.34;;;0.32;100.00
62791;BME280;48830;53.426;10.300;2023-04-03T01:39:21;103328.03;;;0.25;100.00
62791;BME280;48830;53.426;10.300;2023-04-03T01:41:48;103329.97;;;0.28;100.00
62791;BME280;48830;53.426;10.300;2023-04-03T01:44:34;103326.97;;;0.32;100.00
62791;BME280;48830;53.426;10.300;2023-04-03T01:47:00;103336.66;;;0.36;100.00
62791;BME280;48830;53.426;10.300;2023-04-03T01:49:27;103329.81;;;0.35;100.00
62791;BME280;48830;53.426;10.300;2023-04-03T01:51:53;103320.00;;;0.38;100.00
62791;BME280;48830;53.426;10.300;2023-04-03T01:54:18;103326.09;;;0.40;100.00
62791;BME280;48830;53.426;10.300;2023-04-03T01:56:44;103327.13;;;0.42;100.00
62791;BME280;48830;53.426;10.300;2023-04-03T01:59:10;103329.22;;;0.37;100.00
62791;BME280;48830;53.426;10.300;2023-04-03T02:01:35;103328.63;;;0.40;100.00
62791;BME280;48830;53.426;10.300;2023-04-03T02:04:01;103328.03;;;0.42;100.00
62791;BME280;48830;53.426;10.300;2023-04-03T02:06:26;103323.28;;;0.45;100.00
62791;BME280;48830;53.426;10.300;2023-04-03T02:08:52;103325.63;;;0.52;100.00
62791;BME280;48830;53.426;10.300;2023-04-03T02:11:17;103323.28;;;0.45;100.00
62791;BME280;48830;53.426;10.300;2023-04-03T02:13:43;103336.19;;;0.48;100.00
62791;BME280;48830;53.426;10.300;2023-04-03T02:16:09;103334.44;;;0.56;100.00
62791;BME280;48830;53.426;10.300;2023-04-03T02:18:35;103331.16;;;0.57;100.00
62791;BME280;48830;53.426;10.300;2023-04-03T02:21:01;103327.88;;;0.58;100.00
62791;BME280;48830;53.426;10.300;2023-04-03T02:23:26;103330.41;;;0.58;100.00
62791;BME280;48830;53.426;10.300;2023-04-03T02:25:52;103330.41;;;0.58;100.00
62791;BME280;48830;53.426;10.300;2023-04-03T02:28:17;103322.06;;;0.59;100.00
62791;BME280;48830;53.426;10.300;2023-04-03T02:30:43;103329.81;;;0.61;100.00
62791;BME280;48830;53.426;10.300;2023-04-03T02:33:09;103328.63;;;0.66;100.00
62791;BME280;48830;53.426;10.300;2023-04-03T02:35:35;103337.38;;;0.69;100.00
62791;BME280;48830;53.426;10.300;2023-04-03T02:38:02;103340.53;;;0.67;100.00
62791;BME280;48830;53.426;10.300;2023-04-03T02:40:27;103329.06;;;0.70;100.00
62791;BME280;48830;53.426;10.300;2023-04-03T02:42:53;103327.75;;;0.65;100.00
62791;BME280;48830;53.426;10.300;2023-04-03T02:45:19;103326.53;;;0.62;100.00
62791;BME280;48830;53.426;10.300;2023-04-03T02:47:44;103333.50;;;0.64;100.00
62791;BME280;48830;53.426;10.300;2023-04-03T02:50:10;103330.09;;;0.72;100.00
62791;BME280;48830;53.426;10.300;2023-04-03T02:52:35;103328.59;;;0.74;100.00
62791;BME280;48830;53.426;10.300;2023-04-03T02:55:01;103341.72;;;0.70;100.00
62791;BME280;48830;53.426;10.300;2023-04-03T02:57:26;103338.88;;;0.67;100.00
62791;BME280;48830;53.426;10.300;2023-04-03T02:59:52;103338.56;;;0.64;100.00
62791;BME280;48830;53.426;10.300;2023-04-03T03:02:17;103336.66;;;0.62;100.00
62791;BME280;48830;53.426;10.300;2023-04-03T03:04:43;103340.66;;;0.68;100.00
62791;BME280;48830;53.426;10.300;2023-04-03T03:07:08;103340.09;;;0.62;100.00
62791;BME280;48830;53.426;10.300;2023-04-03T03:09:34;103339.63;;;0.66;100.00
62791;BME280;48830;53.426;10.300;2023-04-03T03:11:59;103330.53;;;0.68;100.00
62791;BME280;48830;53.426;10.300;2023-04-03T03:14:25;103338.88;;;0.67;100.00
62791;BME280;48830;53.426;10.300;2023-04-03T03:16:50;103344.13;;;0.60;100.00
62791;BME280;48830;53.426;10.300;2023-04-03T03:19:16;103341.28;;;0.66;100.00
62791;BME280;48830;53.426;10.300;2023-04-03T03:21:42;103341.41;;;0.59;100.00
62791;BME280;48830;53.426;10.300;2023-04-03T03:24:07;103339.94;;;0.61;100.00
62791;BME280;48830;53.426;10.300;2023-04-03T03:26:33;103341.09;;;0.64;100.00
62791;BME280;48830;53.426;10.300;2023-04-03T03:29:01;103334.44;;;0.65;100.00
62791;BME280;48830;53.426;10.300;2023-04-03T03:31:26;103331.91;;;0.65;100.00
62791;BME280;48830;53.426;10.300;2023-04-03T03:33:52;103339.03;;;0.69;100.00
62791;BME280;48830;53.426;10.300;2023-04-03T03:36:18;103337.25;;;0.68;100.00
62791;BME280;48830;53.426;10.300;2023-04-03T03:38:43;103332.78;;;0.65;100.00
62791;BME280;48830;53.426;10.300;2023-04-03T03:41:09;103323.88;;;0.60;100.00
62791;BME280;48830;53.426;10.300;2023-04-03T03:43:34;103330.97;;;0.64;100.00
62791;BME280;48830;53.426;10.300;2023-04-03T03:46:01;103342.03;;;0.65;100.00
62791;BME280;48830;53.426;10.300;2023-04-03T03:48:27;103343.63;;;0.64;100.00
62791;BME280;48830;53.426;10.300;2023-04-03T03:50:53;103337.56;;;0.62;100.00
62791;BME280;48830;53.426;10.300;2023-04-03T03:53:22;103343.38;;;0.61;100.00
62791;BME280;48830;53.426;10.300;2023-04-03T03:55:51;103337.84;;;0.57;100.00
62791;BME280;48830;53.426;10.300;2023-04-03T03:58:19;103342.16;;;0.58;100.00
62791;BME280;48830;53.426;10.300;2023-04-03T04:00:44;103331.75;;;0.55;100.00
62791;BME280;48830;53.426;10.300;2023-04-03T04:03:10;103333.69;;;0.48;100.00
62791;BME280;48830;53.426;10.300;2023-04-03T04:05:36;103339.03;;;0.51;100.00
62791;BME280;48830;53.426;10.300;2023-04-03T04:08:02;103337.25;;;0.50;100.00
62791;BME280;48830;53.426;10.300;2023-04-03T04:10:27;103336.06;;;0.47;100.00
62791;BME280;48830;53.426;10.300;2023-04-03T04:12:54;103336.38;;;0.50;100.00
62791;BME280;48830;53.426;10.300;2023-04-03T04:15:23;103345.59;;;0.49;100.00
62791;BME280;48830;53.426;10.300;2023-04-03T04:17:50;103347.38;;;0.50;100.00
62791;BME280;48830;53.426;10.300;2023-04-03T04:20:16;103346.19;;;0.47;100.00
62791;BME280;48830;53.426;10.300;2023-04-03T04:22:42;103348.72;;;0.47;100.00
62791;BME280;48830;53.426;10.300;2023-04-03T04:25:08;103345.72;;;0.42;100.00
62791;BME280;48830;53.426;10.300;2023-04-03T04:27:35;103350.97;;;0.44;100.00
62791;BME280;48830;53.426;10.300;2023-04-03T04:30:03;103355.28;;;0.45;100.00
62791;BME280;48830;53.426;10.300;2023-04-03T04:32:30;103355.28;;;0.45;100.00
62791;BME280;48830;53.426;10.300;2023-04-03T04:34:56;103357.50;;;0.42;100.00
62791;BME280;48830;53.426;10.300;2023-04-03T04:37:21;103351.41;;;0.40;100.00
62791;BME280;48830;53.426;10.300;2023-04-03T04:39:47;103363.03;;;0.38;100.00
62791;BME280;48830;53.426;10.300;2023-04-03T04:42:12;103362.72;;;0.43;100.00
62791;BME280;48830;53.426;10.300;2023-04-03T04:44:39;103367.94;;;0.45;100.00
62791;BME280;48830;53.426;10.300;2023-04-03T04:47:05;103367.94;;;0.45;100.00
62791;BME280;48830;53.426;10.300;2023-04-03T04:49:31;103371.22;;;0.44;100.00
62791;BME280;48830;53.426;10.300;2023-04-03T04:51:57;103369.41;;;0.43;100.00
62791;BME280;48830;53.426;10.300;2023-04-03T04:54:27;103377.75;;;0.42;100.00
62791;BME280;48830;53.426;10.300;2023-04-03T04:56:53;103374.19;;;0.40;100.00
62791;BME280;48830;53.426;10.300;2023-04-03T04:59:19;103376.09;;;0.34;100.00
62791;BME280;48830;53.426;10.300;2023-04-03T05:01:44;103380.88;;;0.39;100.00
62791;BME280;48830;53.426;10.300;2023-04-03T05:04:14;103384.28;;;0.40;100.00
62791;BME280;48830;53.426;10.300;2023-04-03T05:06:41;103385.78;;;0.38;100.00
62791;BME280;48830;53.426;10.300;2023-04-03T05:09:11;103381.75;;;0.40;100.00
62791;BME280;48830;53.426;10.300;2023-04-03T05:11:38;103389.34;;;0.40;100.00
62791;BME280;48830;53.426;10.300;2023-04-03T05:14:05;103396.19;;;0.41;100.00
62791;BME280;48830;53.426;10.300;2023-04-03T05:16:32;103395.31;;;0.40;100.00
62791;BME280;48830;53.426;10.300;2023-04-03T05:18:58;103395.91;;;0.38;100.00
62791;BME280;48830;53.426;10.300;2023-04-03T05:21:24;103399.47;;;0.40;100.00
62791;BME280;48830;53.426;10.300;2023-04-03T05:23:51;103392.91;;;0.42;100.00
62791;BME280;48830;53.426;10.300;2023-04-03T05:26:18;103401.13;;;0.39;100.00
62791;BME280;48830;53.426;10.300;2023-04-03T05:28:45;103397.41;;;0.44;100.00
62791;BME280;48830;53.426;10.300;2023-04-03T05:31:12;103398.88;;;0.51;100.00
62791;BME280;48830;53.426;10.300;2023-04-03T05:33:38;103404.09;;;0.61;100.00
62791;BME280;48830;53.426;10.300;2023-04-03T05:36:07;103405.44;;;0.66;100.00
62791;BME280;48830;53.426;10.300;2023-04-03T05:38:36;103400.97;;;0.81;100.00
62791;BME280;48830;53.426;10.300;2023-04-03T05:41:02;103409.63;;;0.92;100.00
62791;BME280;48830;53.426;10.300;2023-04-03T05:43:27;103415.53;;;1.01;100.00
62791;BME280;48830;53.426;10.300;2023-04-03T05:45:54;103414.03;;;1.12;100.00
62791;BME280;48830;53.426;10.300;2023-04-03T05:48:21;103418.34;;;1.21;100.00
62791;BME280;48830;53.426;10.300;2023-04-03T05:50:47;103414.00;;;1.29;100.00
62791;BME280;48830;53.426;10.300;2023-04-03T05:53:22;103413.66;;;1.43;100.00
62791;BME280;48830;53.426;10.300;2023-04-03T05:55:50;103418.72;;;1.52;100.00
62791;BME280;48830;53.426;10.300;2023-04-03T05:58:16;103420.16;;;1.67;100.00
62791;BME280;48830;53.426;10.300;2023-04-03T06:00:44;103420.06;;;1.84;100.00
62791;BME280;48830;53.426;10.300;2023-04-03T06:03:11;103425.94;;;2.02;100.00
62791;BME280;48830;53.426;10.300;2023-04-03T06:05:36;103423.47;;;2.21;100.00
62791;BME280;48830;53.426;10.300;2023-04-03T06:08:02;103426.00;;;2.40;100.00
62791;BME280;48830;53.426;10.300;2023-04-03T06:10:29;103422.31;;;2.55;100.00
62791;BME280;48830;53.426;10.300;2023-04-03T06:12:55;103432.44;;;2.64;100.00
62791;BME280;48830;53.426;10.300;2023-04-03T06:15:22;103426.03;;;2.78;100.00
62791;BME280;48830;53.426;10.300;2023-04-03T06:17:48;103425.97;;;2.86;100.00
62791;BME280;48830;53.426;10.300;2023-04-03T06:20:14;103430.06;;;2.95;100.00
62791;BME280;48830;53.426;10.300;2023-04-03T06:22:39;103426.56;;;3.03;100.00
62791;BME280;48830;53.426;10.300;2023-04-03T06:25:05;103422.31;;;3.22;100.00
62791;BME280;48830;53.426;10.300;2023-04-03T06:27:31;103428.22;;;3.31;100.00
62791;BME280;48830;53.426;10.300;2023-04-03T06:29:57;103425.72;;;3.41;99.25
62791;BME280;48830;53.426;10.300;2023-04-03T06:32:22;103429.94;;;3.51;99.04
62791;BME280;48830;53.426;10.300;2023-04-03T06:34:48;103435.22;;;3.73;100.00
62791;BME280;48830;53.426;10.300;2023-04-03T06:37:19;103437.66;;;3.92;98.46
62791;BME280;48830;53.426;10.300;2023-04-03T06:39:44;103448.16;;;4.15;97.47
62791;BME280;48830;53.426;10.300;2023-04-03T06:42:10;103449.81;;;4.25;95.53
62791;BME280;48830;53.426;10.300;2023-04-03T06:44:44;103449.94;;;4.37;93.50
62791;BME280;48830;53.426;10.300;2023-04-03T06:47:14;103447.25;;;4.56;92.13
62791;BME280;48830;53.426;10.300;2023-04-03T06:49:40;103451.81;;;4.70;90.97
62791;BME280;48830;53.426;10.300;2023-04-03T06:52:06;103453.09;;;4.75;88.70
62791;BME280;48830;53.426;10.300;2023-04-03T06:54:32;103453.06;;;4.85;89.33
62791;BME280;48830;53.426;10.300;2023-04-03T06:56:58;103454.06;;;4.97;87.62
62791;BME280;48830;53.426;10.300;2023-04-03T06:59:23;103460.47;;;5.24;88.37
62791;BME280;48830;53.426;10.300;2023-04-03T07:01:49;103459.88;;;5.17;84.55
62791;BME280;48830;53.426;10.300;2023-04-03T07:04:14;103461.63;;;5.28;84.42
62791;BME280;48830;53.426;10.300;2023-04-03T07:06:40;103463.84;;;5.45;84.26
62791;BME280;48830;53.426;10.300;2023-04-03T07:09:08;103467.03;;;5.65;83.26
62791;BME280;48830;53.426;10.300;2023-04-03T07:11:34;103463.44;;;5.73;81.22
62791;BME280;48830;53.426;10.300;2023-04-03T07:13:59;103461.97;;;5.87;81.71
62791;BME280;48830;53.426;10.300;2023-04-03T07:16:25;103468.19;;;5.90;80.34
62791;BME280;48830;53.426;10.300;2023-04-03T07:18:51;103464.06;;;6.02;78.88
62791;BME280;48830;53.426;10.300;2023-04-03T07:21:17;103468.38;;;6.25;76.84
62791;BME280;48830;53.426;10.300;2023-04-03T07:23:42;103467.44;;;6.47;79.18
62791;BME280;48830;53.426;10.300;2023-04-03T07:26:08;103466.84;;;6.39;78.19
62791;BME280;48830;53.426;10.300;2023-04-03T07:28:34;103470.34;;;6.51;76.36
62791;BME280;48830;53.426;10.300;2023-04-03T07:33:26;103471.59;;;6.80;75.50
62791;BME280;48830;53.426;10.300;2023-04-03T07:35:52;103478.28;;;6.90;74.42
62791;BME280;48830;53.426;10.300;2023-04-03T07:38:18;103476.72;;;7.03;73.46
62791;BME280;48830;53.426;10.300;2023-04-03T07:40:51;103476.75;;;7.27;71.14
62791;BME280;48830;53.426;10.300;2023-04-03T07:43:18;103473.63;;;7.43;73.74
62791;BME280;48830;53.426;10.300;2023-04-03T07:45:45;103471.34;;;7.59;71.93
62791;BME280;48830;53.426;10.300;2023-04-03T07:48:12;103473.34;;;7.51;67.46
62791;BME280;48830;53.426;10.300;2023-04-03T07:50:42;103475.28;;;7.79;67.37
62791;BME280;48830;53.426;10.300;2023-04-03T07:53:07;103473.28;;;7.86;65.51
62791;BME280;48830;53.426;10.300;2023-04-03T07:55:33;103472.81;;;7.92;64.02
62791;BME280;48830;53.426;10.300;2023-04-03T07:57:58;103477.00;;;8.03;63.89
62791;BME280;48830;53.426;10.300;2023-04-03T08:00:24;103479.72;;;8.18;61.10
62791;BME280;48830;53.426;10.300;2023-04-03T08:02:50;103481.09;;;8.38;60.34
62791;BME280;48830;53.426;10.300;2023-04-03T08:05:21;103480.66;;;8.32;59.17
62791;BME280;48830;53.426;10.300;2023-04-03T08:07:47;103476.03;;;8.64;58.86
62791;BME280;48830;53.426;10.300;2023-04-03T08:10:14;103485.13;;;8.73;56.91
62791;BME280;48830;53.426;10.300;2023-04-03T08:12:39;103472.63;;;8.90;56.65
62791;BME280;48830;53.426;10.300;2023-04-03T08:15:07;103477.47;;;9.12;56.90
62791;BME280;48830;53.426;10.300;2023-04-03T08:17:34;103478.06;;;9.22;55.18
62791;BME280;48830;53.426;10.300;2023-04-03T08:20:00;103474.41;;;9.18;53.39
62791;BME280;48830;53.426;10.300;2023-04-03T08:22:26;103471.88;;;9.59;54.05
62791;BME280;48830;53.426;10.300;2023-04-03T08:24:51;103472.19;;;9.51;55.55
62791;BME280;48830;53.426;10.300;2023-04-03T08:27:17;103468.53;;;9.60;52.99
62791;BME280;48830;53.426;10.300;2023-04-03T08:29:42;103473.06;;;9.51;51.92
62791;BME280;48830;53.426;10.300;2023-04-03T08:32:08;103471.00;;;9.87;52.38
62791;BME280;48830;53.426;10.300;2023-04-03T08:34:34;103471.59;;;9.83;51.33
62791;BME280;48830;53.426;10.300;2023-04-03T08:37:02;103469.63;;;9.79;48.95
62791;BME280;48830;53.426;10.300;2023-04-03T08:39:27;103464.78;;;10.11;48.21
62791;BME280;48830;53.426;10.300;2023-04-03T08:41:55;103474.66;;;10.18;48.55
62791;BME280;48830;53.426;10.300;2023-04-03T08:44:54;103472.03;;;10.32;48.75
62791;BME280;48830;53.426;10.300;2023-04-03T08:47:37;103471.78;;;10.42;48.19
62791;BME280;48830;53.426;10.300;2023-04-03T08:50:06;103470.19;;;10.59;49.46
62791;BME280;48830;53.426;10.300;2023-04-03T08:52:41;103464.16;;;10.73;48.76
62791;BME280;48830;53.426;10.300;2023-04-03T08:57:45;103468.25;;;10.84;48.01
62791;BME280;48830;53.426;10.300;2023-04-03T09:02:47;103456.66;;;11.07;47.89
62791;BME280;48830;53.426;10.300;2023-04-03T09:05:20;103454.59;;;11.16;44.92
62791;BME280;48830;53.426;10.300;2023-04-03T09:07:55;103473.69;;;11.20;44.68
62791;BME280;48830;53.426;10.300;2023-04-03T09:10:27;103461.09;;;11.41;45.62
62791;BME280;48830;53.426;10.300;2023-04-03T09:15:34;103458.41;;;11.70;44.88
62791;BME280;48830;53.426;10.300;2023-04-03T09:18:52;103457.19;;;12.11;44.58
62791;BME280;48830;53.426;10.300;2023-04-03T09:21:25;103461.03;;;11.87;45.19
62791;BME280;48830;53.426;10.300;2023-04-03T09:24:04;103452.97;;;11.97;44.97
62791;BME280;48830;53.426;10.300;2023-04-03T09:26:48;103445.69;;;12.39;44.48
62791;BME280;48830;53.426;10.300;2023-04-03T09:29:22;103452.97;;;12.47;42.70
62791;BME280;48830;53.426;10.300;2023-04-03T09:31:50;103447.53;;;12.75;44.09
62791;BME280;48830;53.426;10.300;2023-04-03T09:34:23;103446.56;;;13.09;43.52
62791;BME280;48830;53.426;10.300;2023-04-03T09:36:53;103449.94;;;12.72;43.13
62791;BME280;48830;53.426;10.300;2023-04-03T09:39:29;103446.69;;;12.94;43.57
62791;BME280;48830;53.426;10.300;2023-04-03T09:42:03;103453.31;;;13.07;44.02
62791;BME280;48830;53.426;10.300;2023-04-03T09:44:32;103441.91;;;13.20;43.46
62791;BME280;48830;53.426;10.300;2023-04-03T09:46:58;103441.59;;;13.31;43.11
62791;BME280;48830;53.426;10.300;2023-04-03T09:49:24;103449.66;;;13.20;42.83
62791;BME280;48830;53.426;10.300;2023-04-03T09:51:50;103449.53;;;13.18;42.84
62791;BME280;48830;53.426;10.300;2023-04-03T09:54:36;103437.50;;;13.54;43.16
62791;BME280;48830;53.426;10.300;2023-04-03T09:57:08;103436.28;;;13.65;42.30
62791;BME280;48830;53.426;10.300;2023-04-03T09:59:45;103430.28;;;13.66;42.13
62791;BME280;48830;53.426;10.300;2023-04-03T10:04:39;103423.88;;;13.97;41.79
62791;BME280;48830;53.426;10.300;2023-04-03T10:07:35;103420.06;;;14.08;41.48
62791;BME280;48830;53.426;10.300;2023-04-03T10:10:17;103424.63;;;14.54;41.03
62791;BME280;48830;53.426;10.300;2023-04-03T10:12:43;103414.78;;;14.89;41.71
62791;BME280;48830;53.426;10.300;2023-04-03T10:15:16;103410.88;;;15.21;40.90
62791;BME280;48830;53.426;10.300;2023-04-03T10:17:57;103409.28;;;15.02;42.38
62791;BME280;48830;53.426;10.300;2023-04-03T10:20:47;103414.78;;;15.56;40.66
62791;BME280;48830;53.426;10.300;2023-04-03T10:23:18;103405.69;;;15.66;39.53
62791;BME280;48830;53.426;10.300;2023-04-03T10:33:56;103410.50;;;15.81;39.26
62791;BME280;48830;53.426;10.300;2023-04-03T10:39:32;103397.97;;;14.57;39.62
62791;BME280;48830;53.426;10.300;2023-04-03T10:47:47;103396.94;;;14.11;40.48
62791;BME280;48830;53.426;10.300;2023-04-03T10:57:54;103392.91;;;14.39;38.16
62791;BME280;48830;53.426;10.300;2023-04-03T11:00:25;103373.91;;;14.80;38.16
62791;BME280;48830;53.426;10.300;2023-04-03T11:03:00;103373.41;;;14.90;38.89
62791;BME280;48830;53.426;10.300;2023-04-03T11:05:36;103371.06;;;14.32;37.89
62791;BME280;48830;53.426;10.300;2023-04-03T11:08:11;103375.69;;;13.59;38.48
62791;BME280;48830;53.426;10.300;2023-04-03T11:10:47;103372.78;;;14.53;38.45
62791;BME280;48830;53.426;10.300;2023-04-03T11:13:17;103364.34;;;15.24;38.67
62791;BME280;48830;53.426;10.300;2023-04-03T11:15:44;103370.63;;;15.31;37.67
62791;BME280;48830;53.426;10.300;2023-04-03T11:18:22;103363.03;;;15.35;38.30
62791;BME280;48830;53.426;10.300;2023-04-03T11:21:02;103365.22;;;15.25;38.98
62791;BME280;48830;53.426;10.300;2023-04-03T11:23:34;103358.41;;;15.51;40.60
62791;BME280;48830;53.426;10.300;2023-04-03T11:26:10;103352.94;;;15.19;38.92
62791;BME280;48830;53.426;10.300;2023-04-03T11:28:36;103349.88;;;15.77;40.07
62791;BME280;48830;53.426;10.300;2023-04-03T11:33:44;103348.53;;;15.40;38.07
62791;BME280;48830;53.426;10.300;2023-04-03T11:39:35;103344.53;;;15.72;37.91
62791;BME280;48830;53.426;10.300;2023-04-03T11:42:33;103347.25;;;15.53;37.10
62791;BME280;48830;53.426;10.300;2023-04-03T11:47:54;103340.72;;;15.63;37.37
62791;BME280;48830;53.426;10.300;2023-04-03T11:50:45;103345.47;;;15.04;37.89
62791;BME280;48830;53.426;10.300;2023-04-03T12:29:18;103302.56;;;15.84;36.04
62791;BME280;48830;53.426;10.300;2023-04-03T12:45:27;103294.84;;;14.24;39.05
62791;BME280;48830;53.426;10.300;2023-04-03T12:47:54;103290.09;;;14.14;39.75
62791;BME280;48830;53.426;10.300;2023-04-03T12:50:40;103294.34;;;14.33;39.69
62791;BME280;48830;53.426;10.300;2023-04-03T12:53:12;103292.03;;;13.57;39.00
62791;BME280;48830;53.426;10.300;2023-04-03T12:55:38;103294.94;;;13.45;39.68
62791;BME280;48830;53.426;10.300;2023-04-03T12:58:30;103285.47;;;14.05;38.80
62791;BME280;48830;53.426;10.300;2023-04-03T13:03:26;103282.09;;;14.29;37.54
62791;BME280;48830;53.426;10.300;2023-04-03T13:05:55;103286.75;;;14.58;37.86
62791;BME280;48830;53.426;10.300;2023-04-03T13:08:22;103274.69;;;14.81;38.19
62791;BME280;48830;53.426;10.300;2023-04-03T13:13:18;103289.16;;;14.54;37.78
62791;BME280;48830;53.426;10.300;2023-04-03T13:15:46;103272.22;;;14.41;37.99
62791;BME280;48830;53.426;10.300;2023-04-03T13:18:34;103278.81;;;13.91;37.17
62791;BME280;48830;53.426;10.300;2023-04-03T13:21:15;103276.03;;;14.49;36.85
62791;BME280;48830;53.426;10.300;2023-04-03T13:23:45;103265.41;;;15.12;37.36
62791;BME280;48830;53.426;10.300;2023-04-03T13:26:15;103264.06;;;15.45;37.94
62791;BME280;48830;53.426;10.300;2023-04-03T13:28:43;103270.84;;;15.18;36.86
62791;BME280;48830;53.426;10.300;2023-04-03T13:33:43;103259.84;;;14.11;37.46
62791;BME280;48830;53.426;10.300;2023-04-03T13:36:21;103271.97;;;14.56;38.12
62791;BME280;48830;53.426;10.300;2023-04-03T13:39:03;103263.13;;;14.51;38.55
62791;BME280;48830;53.426;10.300;2023-04-03T13:41:35;103266.78;;;14.78;39.28
62791;BME280;48830;53.426;10.300;2023-04-03T13:46:57;103262.91;;;14.03;39.65
62791;BME280;48830;53.426;10.300;2023-04-03T13:49:36;103272.81;;;13.31;39.23
62791;BME280;48830;53.426;10.300;2023-04-03T13:52:27;103270.25;;;13.92;40.02
62791;BME280;48830;53.426;10.300;2023-04-03T13:54:57;103255.34;;;13.86;40.02
62791;BME280;48830;53.426;10.300;2023-04-03T13:57:23;103249.16;;;14.04;38.77
62791;BME280;48830;53.426;10.300;2023-04-03T13:59:48;103248.72;;;14.14;38.54
62791;BME280;48830;53.426;10.300;2023-04-03T14:07:08;103243.06;;;14.02;39.86
62791;BME280;48830;53.426;10.300;2023-04-03T14:09:34;103237.97;;;13.61;39.50
62791;BME280;48830;53.426;10.300;2023-04-03T14:12:05;103244.63;;;13.98;38.90
62791;BME280;48830;53.426;10.300;2023-04-03T14:14:33;103240.88;;;13.90;38.17
62791;BME280;48830;53.426;10.300;2023-04-03T14:17:02;103241.34;;;13.81;37.18
62791;BME280;48830;53.426;10.300;2023-04-03T14:19:31;103239.69;;;13.42;37.67
62791;BME280;48830;53.426;10.300;2023-04-03T14:21:57;103237.50;;;13.92;38.41
62791;BME280;48830;53.426;10.300;2023-04-03T14:24:24;103238.44;;;13.53;39.82
62791;BME280;48830;53.426;10.300;2023-04-03T14:26:52;103239.75;;;13.83;40.29
62791;BME280;48830;53.426;10.300;2023-04-03T14:29:19;103241.88;;;13.13;39.91
62791;BME280;48830;53.426;10.300;2023-04-03T14:31:49;103242.38;;;13.64;39.88
62791;BME280;48830;53.426;10.300;2023-04-03T14:34:15;103232.22;;;13.89;39.33
62791;BME280;48830;53.426;10.300;2023-04-03T14:36:43;103237.06;;;14.03;40.12
62791;BME280;48830;53.426;10.300;2023-04-03T14:39:11;103243.72;;;13.56;39.17